• Join FlightAware (Why Join?)
  • Login
  • US Flag 
12:54PM EDT


 

Airport Tracker/Info


-or-


 

Live Flight TrackerFlight Track Log ✈ EJA941 ✈ 08-May-2013 ✈ KTWF - KSDL

Flight Track Log - Related Links

Times and Time Zones

All times are in EDT time to prevent confusion due to time zone crossing. See the EJA941 flight status page for this flight to view local times or setup timezone preferences in your user account.

Time Position Orientation Groundspeed Altitude Reporting Facility
EDT Latitude Longitude Course Direction KTS MPH feet Rate Location/Type
10:45PM 42.4628 -114.5350 130° Southeast 231 266 6,900  Level Salt Lake Center
10:46PM 42.4294 -114.4800 129° Southeast 216 249 11,900 4,020 Climbing Salt Lake Center
10:47PM 42.0062 -113.7260 132° Southeast  Level FlightAware Approximate
10:47PM 42.3850 -114.4222 136° Southeast 260 299 15,200  Level Salt Lake Center
10:48PM 41.9299 -113.6030 132° Southeast  Level FlightAware Approximate
10:48PM 42.2906 -114.3811 162° South 340 391 16,800  Level Salt Lake Center
10:49PM 41.8538 -113.4743 124° Southeast  Level FlightAware Approximate
10:49PM 42.1842 -114.3367 163° South 377 434 18,900  Level Salt Lake Center
10:50PM 41.7756 -113.3477 130° Southeast  Level FlightAware Approximate
10:50PM 42.0911 -114.2969 162° South 386 444 20,500  Level Salt Lake Center
10:51PM 41.9814 -114.2519 163° South 405 466 22,500 2,220 Climbing Salt Lake Center
10:52PM 41.8478 -114.1956 163° South 418 481 25,100 2,160 Climbing Salt Lake Center
10:53PM 41.7356 -114.1506 163° South 426 490 27,000 1,800 Climbing Salt Lake Center
10:54PM 41.6233 -114.1061 164° South 432 497 28,900 1,620 Climbing Salt Lake Center
10:55PM 41.4928 -114.0492 162° South 451 519 30,400 1,560 Climbing Salt Lake Center
10:57PM 41.3694 -113.9992 163° South 463 533 32,100 1,800 Climbing Salt Lake Center
10:58PM 41.2492 -113.9497 163° South 458 527 34,100 1,500 Climbing Salt Lake Center
10:59PM 41.1308 -113.9022 163° South 452 520 35,200 1,680 Climbing Salt Lake Center
11:00PM 40.9886 -113.8431 163° South 448 516 37,600 2,280 Climbing Salt Lake Center
11:01PM 40.8683 -113.7950 163° South 451 519 39,900 1,560 Climbing Salt Lake Center
11:02PM 40.7481 -113.7458 163° South 453 521 40,900 480 Climbing Salt Lake Center
11:03PM 40.6228 -113.6969 163° South 466 536 41,000  Climbing Salt Lake Center
11:04PM 40.4906 -113.6439 163° South 491 565 41,000  Level Salt Lake Center
11:05PM 40.3528 -113.5886 163° South 512 589 41,000  Level Salt Lake Center
11:06PM 40.2156 -113.5339 163° South 516 594 41,000  Level Salt Lake Center
11:07PM 40.0775 -113.4803 163° South 518 596 41,000  Level Salt Lake Center
11:08PM 39.9114 -113.4153 163° South 521 600 41,000  Level Salt Lake Center
11:09PM 39.7731 -113.3606 163° South 520 598 41,000  Level Salt Lake Center
11:10PM 39.6231 -113.3025 163° South 525 604 41,000  Level Salt Lake Center
11:11PM 39.4844 -113.2489 163° South 523 602 41,000  Level Salt Lake Center
11:12PM 39.3450 -113.1953 163° South 523 602 41,000  Level Salt Lake Center
11:13PM 39.2058 -113.1419 163° South 523 602 41,000  Level Salt Lake Center
11:14PM 39.0658 -113.0900 164° South 524 603 41,000  Level Salt Lake Center
11:15PM 38.9258 -113.0369 164° South 524 603 41,000  Level Salt Lake Center
11:16PM 38.7858 -112.9850 164° South 524 603 41,000  Level Salt Lake Center
11:17PM 38.6472 -112.9308 163° South 522 601 41,000  Level Salt Lake Center
11:18PM 38.5069 -112.8800 164° South 522 601 41,000  Level Salt Lake Center
11:19PM 38.3408 -112.8175 164° South 519 597 41,000  Level Salt Lake Center
11:20PM 38.2019 -112.7661 164° South 519 597 41,000  Level Salt Lake Center
11:21PM 38.0633 -112.7142 164° South 518 596 41,000  Level Salt Lake Center
11:22PM 37.9244 -112.6625 164° South 517 595 41,000  Level Salt Lake Center
11:23PM 37.7858 -112.6108 164° South 516 594 41,000  Level Salt Lake Center
11:24PM 37.6458 -112.5592 164° South 516 594 41,000  Level Salt Lake Center
11:25PM 37.5047 -112.5075 164° South 518 596 41,000  Level Salt Lake Center
11:26PM 37.3650 -112.4561 164° South 518 596 41,000  Level Salt Lake Center
11:27PM 37.3089 -112.4358 164° South 516 594 41,000 -840 Level Los Angeles Center
11:28PM 37.1700 -112.3853 164° South 518 596 39,800 -1,320 Descending Los Angeles Center
11:29PM 37.0308 -112.3358 164° South 519 597 38,300 -840 Descending Los Angeles Center
11:30PM 36.8925 -112.2853 164° South 517 595 38,000 -660 Descending Los Angeles Center
11:31PM 36.7256 -112.2261 164° South 519 597 36,900 -1,500 Descending Los Angeles Center
11:32PM 36.5625 -112.1678 164° South 512 589 35,000 -1,620 Descending Los Angeles Center
11:33PM 36.4244 -112.1200 164° South 514 592 33,700 -1,320 Descending Los Angeles Center
11:34PM 36.2864 -112.0725 164° South 514 592 32,400 -1,320 Descending Los Angeles Center
11:35PM 36.1672 -112.0297 164° South 514 592 31,100 -1,320 Descending Los Angeles Center
11:36PM 36.0306 -111.9825 164° South 509 586 29,700 -1,020 Descending Los Angeles Center
11:37PM 35.8675 -111.9239 164° South 506 582 29,000 -360 Descending Los Angeles Center
11:38PM 35.7322 -111.8778 165° South 503 579 29,000  Level Los Angeles Center
11:39PM 35.5911 -111.8511 171° South 510 587 29,000  Level Los Angeles Center
11:40PM 35.4497 -111.8592 183° South 506 582 29,000 -540 Level Los Angeles Center
11:41PM 35.3125 -111.8664 182° South 494 568 28,000 -1,500 Descending Los Angeles Center
11:42PM 35.1797 -111.8742 183° South 481 554 26,000 -2,220 Descending Albuquerque Center
11:43PM 35.0211 -111.8817 182° South 474 545 23,500 -2,220 Descending Albuquerque Center
11:44PM 34.8917 -111.8892 183° South 469 540 21,600 -1,860 Descending Albuquerque Center
11:45PM 34.7711 -111.8950 182° South 446 513 19,700 -1,860 Descending Albuquerque Center
11:46PM 34.6489 -111.9014 182° South 432 497 17,800 -1,740 Descending Albuquerque Center
11:47PM 34.5303 -111.9067 182° South 428 493 16,200 -1,680 Descending Albuquerque Center
11:48PM 34.4275 -111.9117 182° South 374 430 14,400 -1,560 Descending Albuquerque Center
11:49PM 34.3389 -111.9161 182° South 327 376 13,100 -1,320 Descending Albuquerque Center
11:50PM 34.2547 -111.9194 182° South 306 352 11,800 -1,080 Descending Albuquerque Center
11:51PM 34.1692 -111.9225 182° South 307 353 11,000 -600 Descending Albuquerque Center
11:52PM 34.0689 -111.9281 183° South 305 351 10,600 -1,200 Descending Albuquerque Center
11:53PM 33.9900 -111.9328 183° South 295 339 8,600 -1,500 Descending Albuquerque Center
11:54PM 33.9150 -111.9386 184° South 280 322 7,600 -840 Descending Albuquerque Center
11:55PM 33.8450 -111.9431 183° South 261 300 7,000 -1,020 Descending Albuquerque Center
11:57PM 33.7878 -111.9264 166° South 222 255 5,600 -1,440 Descending Albuquerque Center
11:58PM 33.7342 -111.8989 157° South 215 247 4,100 -1,260 Descending Albuquerque Center
11:59PM 33.6836 -111.8769 160° South 177 204 3,100 -1,020 Descending Albuquerque Center
12:00AM 33.6486 -111.8808 185° South 154 177 2,100 -840 Descending Albuquerque Center
12:01AM 33.6286 -111.9047 225° Southwest 143 165 1,500 -600 Descending Albuquerque Center